createdAt,value
2018-09-12T00:03:35.803Z,17.80
2018-09-12T00:09:40.740Z,17.90
2018-09-12T00:15:45.660Z,18.00
2018-09-12T00:21:50.835Z,18.00
2018-09-12T00:27:55.711Z,18.00
2018-09-12T00:34:00.705Z,18.10
2018-09-12T00:40:06.322Z,18.10
2018-09-12T00:46:11.343Z,18.10
2018-09-12T00:52:16.546Z,18.00
2018-09-12T00:58:21.341Z,18.00
2018-09-12T01:04:26.264Z,18.00
2018-09-12T01:10:31.051Z,18.00
2018-09-12T01:16:36.159Z,18.10
2018-09-12T01:22:41.870Z,18.10
2018-09-12T01:28:47.036Z,18.10
2018-09-12T01:34:51.901Z,18.10
2018-09-12T01:40:56.762Z,18.00
2018-09-12T01:47:01.615Z,18.10
2018-09-12T01:53:06.577Z,18.20
2018-09-12T01:59:13.659Z,18.20
2018-09-12T02:05:18.909Z,18.00
2018-09-12T02:11:24.037Z,17.80
2018-09-12T02:17:28.845Z,17.70
2018-09-12T02:23:33.601Z,17.70
2018-09-12T02:29:38.423Z,17.50
2018-09-12T02:35:48.586Z,17.40
2018-09-12T02:41:53.369Z,17.40
2018-09-12T02:47:58.162Z,17.40
2018-09-12T02:54:02.892Z,17.30
2018-09-12T03:00:08.776Z,17.20
2018-09-12T03:06:14.831Z,17.20
2018-09-12T03:12:19.688Z,17.10
2018-09-12T03:18:24.452Z,17.10
2018-09-12T03:24:29.431Z,17.10
2018-09-12T03:30:34.267Z,17.10
2018-09-12T03:36:39.198Z,17.10
2018-09-12T03:42:44.197Z,17.20
2018-09-12T03:48:49.141Z,17.20
2018-09-12T03:54:54.244Z,17.10
2018-09-12T04:00:59.028Z,17.10
2018-09-12T04:07:03.885Z,17.00
2018-09-12T04:13:08.967Z,16.90
2018-09-12T04:19:14.231Z,16.90
2018-09-12T04:25:18.949Z,16.90
2018-09-12T04:31:24.009Z,16.80
2018-09-12T04:37:28.793Z,16.70
2018-09-12T04:43:33.659Z,16.60
2018-09-12T04:49:38.386Z,16.60
2018-09-12T04:55:44.597Z,16.50
2018-09-12T05:01:49.345Z,16.40
2018-09-12T05:07:54.205Z,16.30
2018-09-12T05:13:59.263Z,16.20
2018-09-12T05:20:04.064Z,16.10
2018-09-12T05:26:09.226Z,16.10
2018-09-12T05:32:14.209Z,16.10
2018-09-12T05:38:18.953Z,16.20
2018-09-12T05:44:23.939Z,16.30
2018-09-12T05:50:28.677Z,16.30
2018-09-12T05:56:33.462Z,16.40
2018-09-12T06:02:38.525Z,16.50
2018-09-12T06:08:43.704Z,16.70
2018-09-12T06:14:48.687Z,16.80
2018-09-12T06:20:53.433Z,17.00
2018-09-12T06:26:58.223Z,17.10
2018-09-12T06:33:03.146Z,17.30
2018-09-12T06:39:12.058Z,17.50
2018-09-12T06:45:17.263Z,18.10
2018-09-12T06:51:22.210Z,21.70
2018-09-12T06:57:26.908Z,25.90
2018-09-12T07:03:31.760Z,28.30
2018-09-12T07:09:36.790Z,29.90
2018-09-12T07:15:42.449Z,31.00
2018-09-12T07:21:47.204Z,31.00
2018-09-12T07:27:52.067Z,29.20
2018-09-12T07:33:57.006Z,26.30
2018-09-12T07:40:02.259Z,24.00
2018-09-12T07:46:07.188Z,22.80
2018-09-12T07:52:12.299Z,22.30
2018-09-12T07:58:17.306Z,22.50
2018-09-12T08:04:21.983Z,22.90
2018-09-12T08:10:26.820Z,23.00
2018-09-12T08:16:31.564Z,23.00
2018-09-12T08:22:36.358Z,23.60
2018-09-12T08:28:42.002Z,24.00
2018-09-12T08:34:46.784Z,24.50
2018-09-12T08:40:51.518Z,24.70
2018-09-12T08:46:56.474Z,25.10
2018-09-12T08:53:01.411Z,25.50
2018-09-12T08:59:06.504Z,25.80
2018-09-12T09:05:12.888Z,25.90
2018-09-12T09:11:17.745Z,26.40
2018-09-12T09:17:22.511Z,27.20
2018-09-12T09:23:27.132Z,27.70
2018-09-12T09:29:31.933Z,27.90
2018-09-12T09:35:36.882Z,28.30
2018-09-12T09:41:42.589Z,28.80
2018-09-12T09:47:47.643Z,29.40
2018-09-12T09:53:52.697Z,30.00
2018-09-12T09:59:57.458Z,30.20
2018-09-12T10:06:07.277Z,30.20
2018-09-12T10:12:13.268Z,30.40
2018-09-12T10:18:18.192Z,31.00
2018-09-12T10:24:23.419Z,31.70
2018-09-12T10:30:28.061Z,31.40
2018-09-12T10:36:33.336Z,31.00
2018-09-12T10:42:38.102Z,31.00
2018-09-12T10:48:44.475Z,31.60
2018-09-12T10:54:49.529Z,32.60
2018-09-12T11:00:54.538Z,31.70
2018-09-12T11:06:59.223Z,32.60
2018-09-12T11:13:03.987Z,32.30
2018-09-12T11:19:09.208Z,32.70
2018-09-12T11:25:14.202Z,32.60
2018-09-12T11:31:19.032Z,32.00
2018-09-12T11:37:24.101Z,32.00
2018-09-12T11:43:29.021Z,31.60
2018-09-12T11:49:33.790Z,30.60
2018-09-12T11:55:39.207Z,28.80
2018-09-12T12:01:44.327Z,28.80
2018-09-12T12:07:49.061Z,30.40
2018-09-12T12:13:54.478Z,31.00
2018-09-12T12:19:59.235Z,31.40
2018-09-12T12:26:04.047Z,30.60
2018-09-12T12:32:09.009Z,28.70
2018-09-12T12:38:14.060Z,27.50
2018-09-12T12:44:18.819Z,27.70
2018-09-12T12:50:23.744Z,28.90
2018-09-12T12:56:28.485Z,28.20
2018-09-12T13:02:33.296Z,30.00
2018-09-12T13:08:38.204Z,30.70
2018-09-12T13:14:44.344Z,31.40
2018-09-12T13:20:55.833Z,31.10
2018-09-12T13:27:00.595Z,30.40
2018-09-12T13:33:05.387Z,30.90
2018-09-12T13:39:17.264Z,30.10
2018-09-12T13:45:22.334Z,30.40
2018-09-12T13:51:27.065Z,30.30
2018-09-12T13:57:31.752Z,31.00
2018-09-12T14:03:36.519Z,30.10
2018-09-12T14:09:42.551Z,30.40
2018-09-12T14:15:47.467Z,30.80
2018-09-12T14:21:52.214Z,30.80
2018-09-12T14:27:57.040Z,31.00
2018-09-12T14:34:01.791Z,30.90
2018-09-12T14:40:07.165Z,31.50
2018-09-12T14:46:12.224Z,30.90
2018-09-12T14:52:16.949Z,31.10
2018-09-12T14:58:21.686Z,29.00
2018-09-12T15:04:26.388Z,27.10
2018-09-12T15:10:31.325Z,25.40
2018-09-12T15:16:36.053Z,24.30
2018-09-12T15:22:41.993Z,23.40
2018-09-12T15:28:47.126Z,22.70
2018-09-12T15:34:51.955Z,22.10
2018-09-12T15:40:56.720Z,21.90
2018-09-12T15:47:01.528Z,21.60
2018-09-12T15:53:06.879Z,21.40
2018-09-12T15:59:13.797Z,21.10
2018-09-12T16:05:18.543Z,20.90
2018-09-12T16:11:23.330Z,20.40
2018-09-12T16:17:28.200Z,20.30
2018-09-12T16:23:33.083Z,20.20
2018-09-12T16:29:37.818Z,20.00
2018-09-12T16:35:43.095Z,19.90
2018-09-12T16:41:47.783Z,19.40
2018-09-12T16:47:52.647Z,19.30
2018-09-12T16:53:57.781Z,19.20
2018-09-12T17:00:02.580Z,18.90
2018-09-12T17:06:07.470Z,18.90
2018-09-12T17:12:12.762Z,18.60
2018-09-12T17:18:17.671Z,18.50
2018-09-12T17:24:22.448Z,18.20
2018-09-12T17:30:27.304Z,18.00
2018-09-12T17:36:32.272Z,18.10
2018-09-12T17:42:37.118Z,17.90
2018-09-12T17:48:42.086Z,17.90
2018-09-12T17:54:47.228Z,17.80
2018-09-12T18:00:52.126Z,17.70
2018-09-12T18:06:56.915Z,17.50
2018-09-12T18:13:01.662Z,17.40
2018-09-12T18:19:06.888Z,17.30
2018-09-12T18:25:11.555Z,17.20
2018-09-12T18:31:16.354Z,17.10
2018-09-12T18:37:21.137Z,17.10
2018-09-12T18:43:25.946Z,17.00
2018-09-12T18:49:30.932Z,16.80
2018-09-12T18:55:35.965Z,16.70
2018-09-12T19:01:40.884Z,16.50
2018-09-12T19:07:46.700Z,16.40
2018-09-12T19:13:51.596Z,16.30
2018-09-12T19:19:56.528Z,16.20
2018-09-12T19:26:01.865Z,16.10
2018-09-12T19:32:06.620Z,16.00
2018-09-12T19:38:11.801Z,15.90
2018-09-12T19:44:16.748Z,15.90
2018-09-12T19:50:21.717Z,15.70
2018-09-12T19:56:26.731Z,15.70
2018-09-12T20:02:33.241Z,15.60
2018-09-12T20:08:38.267Z,15.60
2018-09-12T20:14:43.329Z,15.60
2018-09-12T20:20:48.598Z,15.60
2018-09-12T20:26:53.547Z,15.80
2018-09-12T20:32:58.242Z,15.90
2018-09-12T20:39:03.411Z,16.00
2018-09-12T20:45:08.570Z,16.10
2018-09-12T20:51:13.395Z,16.20
2018-09-12T20:57:18.314Z,16.30
2018-09-12T21:03:23.205Z,16.30
2018-09-12T21:09:28.013Z,16.30
2018-09-12T21:15:32.773Z,16.20
2018-09-12T21:21:37.591Z,16.10
2018-09-12T21:27:42.362Z,16.20
2018-09-12T21:33:47.499Z,16.20
2018-09-12T21:39:52.347Z,16.20
2018-09-12T21:45:57.153Z,16.10
2018-09-12T21:52:01.982Z,16.10
2018-09-12T21:58:07.503Z,16.00
2018-09-12T22:04:12.550Z,16.00
2018-09-12T22:10:17.492Z,16.00
2018-09-12T22:16:22.291Z,16.10
2018-09-12T22:22:27.291Z,16.10
2018-09-12T22:28:32.061Z,16.00
2018-09-12T22:34:36.912Z,15.90
2018-09-12T22:40:42.831Z,15.90
2018-09-12T22:46:47.786Z,16.00
2018-09-12T22:52:52.500Z,16.10
2018-09-12T22:58:57.292Z,16.10
2018-09-12T23:05:02.293Z,16.20
2018-09-12T23:11:07.152Z,16.10
2018-09-12T23:17:12.760Z,16.00
2018-09-12T23:23:17.590Z,15.70
2018-09-12T23:29:22.266Z,15.60
2018-09-12T23:35:27.555Z,15.50
2018-09-12T23:41:32.399Z,15.50
2018-09-12T23:47:37.192Z,15.60
2018-09-12T23:53:42.198Z,15.60
2018-09-12T23:59:47.345Z,15.50
